Pimlico — WDC3747 — position and weather

sailwx.info

Track history (hours):
 
Tides and Currents Weather Stations Pressure Air Temp Water Temp Dewpoint Dewpoint Depression Visibility Wind Speed Wind Dir Waves Ship Positions

Pimlico

Owner: Higman Barge Lines, Inc., Orange, TX. More information available from US FCC via Universal Licensing System and Coast Guard Vessel Documentation Center.

Last reported at 2017-Dec-20 14:34 UTC. Time now 2018-Jan-20 03:41 UTC.
Position N 28°54' W 095°22'.
Warning: this ship's position is 30 days out of date.

Length 24 m; draft 3 m.

Type: Towing. MMSI: 367013470.

Date/timePositionNaut miles runAvg speedWind from/ knotsBaromVisibWave heightAir tempDewpointWater temp
2017-Dec-20 14:34N 28°54' W 095°22'0 0.0
2017-Dec-20 14:26N 28°54' W 095°22'0 0.0
2017-Dec-20 13:59N 28°54' W 095°22'1 0.5
2017-Dec-20 12:13N 28°55' W 095°21'2 3.6
2017-Dec-20 11:41N 28°56' W 095°19'2 5.7
2017-Dec-20 11:23N 28°57' W 095°18'41 3.0
2017-Dec-19 21:34N 29°33' W 094°54'1 7.9
2017-Dec-19 21:29N 29°33' W 094°55'4 8.1
2017-Dec-19 21:00N 29°36' W 094°57'4 8.3
2017-Dec-19 20:31N 29°40' W 094°59'9 5.2
2017-Dec-19 18:45N 29°44' W 095°08'4 0.2
2017-Dec-19 03:19N 29°44' W 095°12'0 0.6
2017-Dec-19 02:50N 29°44' W 095°12'0 0.0
2017-Dec-18 13:01N 29°44' W 095°12'0 0.0
2017-Dec-18 12:48N 29°44' W 095°12'0 0.0
2017-Dec-18 12:28N 29°44' W 095°12'0 0.0
2017-Dec-18 12:00N 29°44' W 095°12'0 0.0
2017-Dec-18 10:55N 29°44' W 095°12'0 0.0
2017-Dec-18 10:24N 29°44' W 095°12'0 0.0
2017-Dec-18 09:55N 29°44' W 095°12'0 0.0
2017-Dec-18 09:30N 29°44' W 095°12'0 0.0
2017-Dec-18 08:20N 29°44' W 095°12'0 0.0
2017-Dec-18 07:57N 29°44' W 095°12'0 0.0
2017-Dec-18 07:29N 29°44' W 095°12'0 0.0
2017-Dec-18 07:00N 29°44' W 095°12'0 0.0
2017-Dec-18 06:30N 29°44' W 095°12'0 0.0
2017-Dec-18 05:57N 29°44' W 095°12'0 0.0
2017-Dec-18 05:30N 29°44' W 095°12'0 0.0
2017-Dec-18 04:57N 29°44' W 095°12'0 0.0
2017-Dec-18 04:23N 29°44' W 095°12'0 0.0
2017-Dec-18 03:52N 29°44' W 095°12'0 0.0
2017-Dec-18 03:30N 29°44' W 095°12'0 0.0
2017-Dec-18 02:58N 29°44' W 095°12'0 0.0
2017-Dec-18 02:30N 29°44' W 095°12'0 0.0
2017-Dec-18 01:59N 29°44' W 095°12'0 0.0
2017-Dec-18 01:29N 29°44' W 095°12'0 0.0
2017-Dec-17 21:41N 29°44' W 095°12'0 2.6
2017-Dec-17 21:30N 29°45' W 095°12'6 0.2
2017-Dec-16 13:02N 29°46' W 095°05'2 5.7
2017-Dec-16 12:37N 29°44' W 095°07'1 6.1
2017-Dec-16 12:29N 29°44' W 095°08'3 5.9
2017-Dec-16 11:57N 29°45' W 095°11'2 5.0
2017-Dec-16 11:30N 29°44' W 095°14'2 4.4
2017-Dec-16 11:00N 29°43' W 095°16'1 1.7
2017-Dec-16 10:30N 29°44' W 095°17'0 0.2
2017-Dec-16 09:38N 29°44' W 095°17'0 0.0
2017-Dec-16 07:55N 29°44' W 095°17'0 0.0
2017-Dec-16 07:28N 29°44' W 095°17'0 0.0
2017-Dec-16 04:15N 29°44' W 095°17'0 0.0
2017-Dec-16 03:55N 29°44' W 095°17'0 0.2
2017-Dec-16 03:25N 29°44' W 095°17'0 0.0
2017-Dec-16 02:57N 29°44' W 095°17'0 0.0
2017-Dec-16 02:23N 29°44' W 095°17'0 0.0
2017-Dec-16 01:46N 29°44' W 095°17'0 0.0
2017-Dec-16 01:22N 29°44' W 095°17'0 0.0
2017-Dec-15 23:34N 29°44' W 095°17'0 0.0
2017-Dec-15 22:50N 29°44' W 095°17'0 0.6
2017-Dec-15 22:29N 29°44' W 095°17'11 3.9
2017-Dec-15 19:36N 29°45' W 095°04'2 0.3
2017-Dec-15 12:20N 29°44' W 095°01'0 0.3
2017-Dec-15 11:22N 29°44' W 095°01'0 0.0
2017-Dec-14 14:40N 29°44' W 095°02'0 0.4
2017-Dec-14 14:26N 29°44' W 095°01'0 0.0
2017-Dec-14 02:27N 29°44' W 095°01'0 0.0
2017-Dec-13 10:02N 29°44' W 095°01'0 1.3
2017-Dec-13 09:53N 29°44' W 095°01'1 1.7
2017-Dec-13 09:15N 29°44' W 095°03'3 6.4
2017-Dec-13 08:49N 29°46' W 095°05'4 0.3
2017-Dec-12 20:53N 29°44' W 095°08'4 5.0
2017-Dec-12 20:01N 29°43' W 095°13'1 0.1
2017-Dec-12 08:57N 29°43' W 095°15'0 0.0
2017-Dec-12 08:27N 29°43' W 095°15'0 0.0
2017-Dec-12 07:53N 29°43' W 095°15'0 0.0
2017-Dec-12 07:23N 29°43' W 095°15'0 0.0
2017-Dec-12 06:55N 29°43' W 095°15'0 0.0
2017-Dec-12 06:06N 29°43' W 095°15'0 0.0
2017-Dec-12 06:00N 29°43' W 095°15'0 0.0
2017-Dec-12 04:01N 29°43' W 095°15'0 0.0
2017-Dec-12 03:59N 29°43' W 095°15'0 0.0
2017-Dec-12 03:26N 29°43' W 095°15'1 0.1
2017-Dec-11 15:43N 29°44' W 095°16'  
Track history (hours):
 
Tides and Currents Weather Stations Pressure Air Temp Water Temp Dewpoint Dewpoint Depression Visibility Wind Speed Wind Dir Waves Ship Positions

Pimlico

Owner: Higman Barge Lines, Inc., Orange, TX. More information available from US FCC via Universal Licensing System and Coast Guard Vessel Documentation Center.

Last reported at 2017-Dec-20 14:34 UTC. Time now 2018-Jan-20 03:41 UTC.
Position N 28°54' W 095°22'.
Warning: this ship's position is 30 days out of date.

Length 24 m; draft 3 m.

Type: Towing. MMSI: 367013470.

Date/timePositionNaut miles runAvg speedWind from/ knotsBaromVisibWave heightAir tempDewpointWater temp
2017-Dec-20 14:34N 28°54' W 095°22'0 0.0
2017-Dec-20 14:26N 28°54' W 095°22'0 0.0
2017-Dec-20 13:59N 28°54' W 095°22'1 0.5
2017-Dec-20 12:13N 28°55' W 095°21'2 3.6
2017-Dec-20 11:41N 28°56' W 095°19'2 5.7
2017-Dec-20 11:23N 28°57' W 095°18'41 3.0
2017-Dec-19 21:34N 29°33' W 094°54'1 7.9
2017-Dec-19 21:29N 29°33' W 094°55'4 8.1
2017-Dec-19 21:00N 29°36' W 094°57'4 8.3
2017-Dec-19 20:31N 29°40' W 094°59'9 5.2
2017-Dec-19 18:45N 29°44' W 095°08'4 0.2
2017-Dec-19 03:19N 29°44' W 095°12'0 0.6
2017-Dec-19 02:50N 29°44' W 095°12'0 0.0
2017-Dec-18 13:01N 29°44' W 095°12'0 0.0
2017-Dec-18 12:48N 29°44' W 095°12'0 0.0
2017-Dec-18 12:28N 29°44' W 095°12'0 0.0
2017-Dec-18 12:00N 29°44' W 095°12'0 0.0
2017-Dec-18 10:55N 29°44' W 095°12'0 0.0
2017-Dec-18 10:24N 29°44' W 095°12'0 0.0
2017-Dec-18 09:55N 29°44' W 095°12'0 0.0
2017-Dec-18 09:30N 29°44' W 095°12'0 0.0
2017-Dec-18 08:20N 29°44' W 095°12'0 0.0
2017-Dec-18 07:57N 29°44' W 095°12'0 0.0
2017-Dec-18 07:29N 29°44' W 095°12'0 0.0
2017-Dec-18 07:00N 29°44' W 095°12'0 0.0
2017-Dec-18 06:30N 29°44' W 095°12'0 0.0
2017-Dec-18 05:57N 29°44' W 095°12'0 0.0
2017-Dec-18 05:30N 29°44' W 095°12'0 0.0
2017-Dec-18 04:57N 29°44' W 095°12'0 0.0
2017-Dec-18 04:23N 29°44' W 095°12'0 0.0
2017-Dec-18 03:52N 29°44' W 095°12'0 0.0
2017-Dec-18 03:30N 29°44' W 095°12'0 0.0
2017-Dec-18 02:58N 29°44' W 095°12'0 0.0
2017-Dec-18 02:30N 29°44' W 095°12'0 0.0
2017-Dec-18 01:59N 29°44' W 095°12'0 0.0
2017-Dec-18 01:29N 29°44' W 095°12'0 0.0
2017-Dec-17 21:41N 29°44' W 095°12'0 2.6
2017-Dec-17 21:30N 29°45' W 095°12'6 0.2
2017-Dec-16 13:02N 29°46' W 095°05'2 5.7
2017-Dec-16 12:37N 29°44' W 095°07'1 6.1
2017-Dec-16 12:29N 29°44' W 095°08'3 5.9
2017-Dec-16 11:57N 29°45' W 095°11'2 5.0
2017-Dec-16 11:30N 29°44' W 095°14'2 4.4
2017-Dec-16 11:00N 29°43' W 095°16'1 1.7
2017-Dec-16 10:30N 29°44' W 095°17'0 0.2
2017-Dec-16 09:38N 29°44' W 095°17'0 0.0
2017-Dec-16 07:55N 29°44' W 095°17'0 0.0
2017-Dec-16 07:28N 29°44' W 095°17'0 0.0
2017-Dec-16 04:15N 29°44' W 095°17'0 0.0
2017-Dec-16 03:55N 29°44' W 095°17'0 0.2
2017-Dec-16 03:25N 29°44' W 095°17'0 0.0
2017-Dec-16 02:57N 29°44' W 095°17'0 0.0
2017-Dec-16 02:23N 29°44' W 095°17'0 0.0
2017-Dec-16 01:46N 29°44' W 095°17'0 0.0
2017-Dec-16 01:22N 29°44' W 095°17'0 0.0
2017-Dec-15 23:34N 29°44' W 095°17'0 0.0
2017-Dec-15 22:50N 29°44' W 095°17'0 0.6
2017-Dec-15 22:29N 29°44' W 095°17'11 3.9
2017-Dec-15 19:36N 29°45' W 095°04'2 0.3
2017-Dec-15 12:20N 29°44' W 095°01'0 0.3
2017-Dec-15 11:22N 29°44' W 095°01'0 0.0
2017-Dec-14 14:40N 29°44' W 095°02'0 0.4
2017-Dec-14 14:26N 29°44' W 095°01'0 0.0
2017-Dec-14 02:27N 29°44' W 095°01'0 0.0
2017-Dec-13 10:02N 29°44' W 095°01'0 1.3
2017-Dec-13 09:53N 29°44' W 095°01'1 1.7
2017-Dec-13 09:15N 29°44' W 095°03'3 6.4
2017-Dec-13 08:49N 29°46' W 095°05'4 0.3
2017-Dec-12 20:53N 29°44' W 095°08'4 5.0
2017-Dec-12 20:01N 29°43' W 095°13'1 0.1
2017-Dec-12 08:57N 29°43' W 095°15'0 0.0
2017-Dec-12 08:27N 29°43' W 095°15'0 0.0
2017-Dec-12 07:53N 29°43' W 095°15'0 0.0
2017-Dec-12 07:23N 29°43' W 095°15'0 0.0
2017-Dec-12 06:55N 29°43' W 095°15'0 0.0
2017-Dec-12 06:06N 29°43' W 095°15'0 0.0
2017-Dec-12 06:00N 29°43' W 095°15'0 0.0
2017-Dec-12 04:01N 29°43' W 095°15'0 0.0
2017-Dec-12 03:59N 29°43' W 095°15'0 0.0
2017-Dec-12 03:26N 29°43' W 095°15'1 0.1
2017-Dec-11 15:43N 29°44' W 095°16'  

Dump ship's entire track history